METAR Data
IDs: Format: Raw Decoded Include TAF

Data at: 1747 UTC 16 Oct 2021

KPRX 161656Z AUTO 03012KT 10SM CLR 19/02 A3037 RMK AO2 SLP299 T01940022
KPRX 161556Z AUTO 35009KT 10SM CLR 18/04 A3038 RMK AO2 SLP301 T01780039
KPRX 161456Z AUTO 35006KT 10SM CLR 15/07 A3038 RMK AO2 SLP301 T01500072 51019
KPRX 161356Z AUTO 34006KT 10SM CLR 12/08 A3036 RMK AO2 SLP297 T01170083
KPRX 161256Z AUTO 33005KT 10SM CLR 09/07 A3034 RMK AO2 SLP290 T00890072
KPRX 161156Z AUTO 32005KT 10SM CLR 08/07 A3032 RMK AO2 SLP283 T00830072 10117 20083 53014
KPRX 161056Z AUTO 32004KT 10SM CLR 09/07 A3030 RMK AO2 SLP274 T00890072
KPRX 160956Z AUTO 31004KT 10SM CLR 10/08 A3029 RMK AO2 SLP270 T01000078
KPRX 160856Z AUTO 31005KT 10SM CLR 10/08 A3028 RMK AO2 SLP267 T01000078 51009
KPRX 160756Z AUTO 29003KT 10SM CLR 11/08 A3027 RMK AO2 SLP265 T01110078
KPRX 160656Z AUTO 31004KT 10SM CLR 11/08 A3027 RMK AO2 SLP264 T01110083
KPRX 160556Z AUTO 33005KT 10SM CLR 11/08 A3025 RMK AO2 SLP257 T01110078 10183 20111 402560111 51018
KPRX 160456Z AUTO 33006KT 10SM CLR 12/08 A3024 RMK AO2 SLP252 T01220078
KPRX 160356Z AUTO 34006KT 10SM CLR 13/07 A3022 RMK AO2 SLP245 T01330072
KPRX 160256Z AUTO 34009KT 10SM CLR 15/08 A3020 RMK AO2 SLP237 T01500078 51031
KPRX 160156Z AUTO 33007KT 10SM CLR 15/09 A3017 RMK AO2 SLP227 T01500089
KPRX 160056Z AUTO 34005KT 10SM CLR 16/09 A3014 RMK AO2 SLP217 T01610089
KPRX 152356Z AUTO 34008KT 10SM CLR 18/08 A3010 RMK AO2 SLP205 T01830083 10250 20183 53027
KPRX 152256Z AUTO 34018G26KT 10SM CLR 21/08 A3007 RMK AO2 PK WND 34026/2253 SLP194 T02060083
KPRX 152156Z AUTO 35014G22KT 10SM CLR 22/12 A3004 RMK AO2 SLP183 T02220117
KPRX 152103Z AUTO 32018G21KT 10SM SCT029 SCT036 22/14 A3002 RMK AO2
KPRX 152056Z AUTO 33018G22KT 10SM BKN029 22/14 A3002 RMK AO2 PK WND 32027/2007 SLP175 T02220139 53021
KPRX 151956Z AUTO 32017G24KT 10SM OVC027 22/17 A2999 RMK AO2 SLP165 T02220167
KPRX 151856Z AUTO 34018G24KT 10SM BKN021 23/18 A2997 RMK AO2 SLP156 T02330178
KPRX 151838Z AUTO 32016G24KT 10SM BKN019 24/19 A2996 RMK AO2
KPRX 151831Z AUTO 33021KT 10SM SCT019 24/19 A2996 RMK AO2
KPRX 151822Z AUTO 34018KT 10SM SCT014 BKN019 25/19 A2996 RMK AO2
KPRX 151756Z AUTO 32017KT 10SM BKN014 OVC025 23/20 A2996 RMK AO2 SLP154 T02330200 10256 20189 51004
KPRX 151748Z AUTO 32015G20KT 10SM BKN016 BKN023 OVC031 23/21 A2996 RMK AO2
KPRX 151714Z AUTO 25010KT 10SM BKN014 OVC022 25/22 A2995 RMK AO2
KPRX 151656Z AUTO 25007KT 10SM SCT012 OVC021 24/22 A2995 RMK AO2 SLP149 T02440222
KPRX 151556Z AUTO 23010KT 10SM OVC012 23/22 A2993 RMK AO2 SLP145 T02330217
KPRX 151456Z AUTO 24005KT 10SM OVC010 23/22 A2993 RMK AO2 CIG 007V012 SLP142 T02280222 50012
KPRX 151452Z AUTO 24004KT 10SM OVC010 23/22 A2993 RMK AO2 CIG 007V012
KPRX 151356Z AUTO 20004KT 8SM BKN007 OVC011 22/22 A2991 RMK AO2 CIG 005V010 SLP136 T02170217
KPRX 151347Z AUTO 21004KT 8SM BKN007 OVC011 22/22 A2990 RMK AO2 CIG 004V008
KPRX 151338Z AUTO 22006KT 7SM OVC005 22/21 A2990 RMK AO2 CIG 003V008
KPRX 151311Z AUTO 22007KT 5SM BR OVC003 21/21 A2990 RMK AO2
KPRX 151256Z AUTO 21006KT 2SM BR OVC003 21/21 A2989 RMK AO2 SLP131 T02110211
KPRX 151248Z AUTO 22006KT 2 1/2SM BR OVC003 21/21 A2989 RMK AO2 CIG 003V006
KPRX 151238Z AUTO 19007KT 8SM OVC005 21/21 A2988 RMK AO2 CIG 003V007
KPRX 151210Z AUTO 16005KT 6SM BR BKN009 19/19 A2987 RMK AO2 CIG 008V011
KPRX 151206Z AUTO 15005KT 5SM BR SCT011 19/19 A2987 RMK AO2
KPRX 151156Z AUTO 15006KT 2SM BR CLR 19/19 A2987 RMK AO2 SLP124 T01890189 10211 20189 51009
KPRX 151149Z AUTO 15006KT 1SM BR CLR 19/18 A2987 RMK AO2
KPRX 151121Z AUTO 00000KT 1/2SM FG VV003 19/19 A2988 RMK AO2
KPRX 151112Z AUTO 00000KT 3/4SM BR VV003 19/19 A2988 RMK AO2 VIS 1/4V5
KPRX 151105Z AUTO 00000KT 1 1/4SM BR CLR 19/19 A2987 RMK AO2 VIS 1/4V5
KPRX 151056Z AUTO 00000KT 3/4SM BR CLR 19/19 A2987 RMK AO2 SLP122 T01940194
KPRX 151051Z AUTO 00000KT 1 1/2SM BR CLR 19/19 A2987 RMK AO2 VIS 3/4V3
KPRX 151041Z AUTO 18004KT 3SM BR CLR 19/19 A2986 RMK AO2
KPRX 151033Z AUTO 18004KT 1 3/4SM BR CLR 19/19 A2986 RMK AO2 VIS 3/4V5
KPRX 150956Z AUTO 21003KT 10SM CLR 20/19 A2985 RMK AO2 SLP114 T02000194
KPRX 150856Z AUTO 22006KT 10SM CLR 21/20 A2984 RMK AO2 SLP113 T02110200 56007
KPRX 150756Z AUTO 16009KT 10SM CLR 21/21 A2985 RMK AO2 SLP114 T02110206
KPRX 150656Z AUTO 16006KT 8SM CLR 21/20 A2986 RMK AO2 SLP117 T02060200
KPRX 150556Z AUTO 15005KT 7SM CLR 20/19 A2987 RMK AO2 SLP122 T02000194 10256 20200 402940189 50000